sensor_id;sensor_type;location;lat;lon;timestamp;P1;durP1;ratioP1;P2;durP2;ratioP2
17145;SDS011;8688;54.444;18.444;2023-02-16T00:01:21;99.70;;;35.90;;
17145;SDS011;8688;54.444;18.444;2023-02-16T00:03:50;103.77;;;37.47;;
17145;SDS011;8688;54.444;18.444;2023-02-16T00:06:18;93.23;;;33.77;;
17145;SDS011;8688;54.444;18.444;2023-02-16T00:08:46;95.93;;;34.73;;
17145;SDS011;8688;54.444;18.444;2023-02-16T00:11:17;99.27;;;35.87;;
17145;SDS011;8688;54.444;18.444;2023-02-16T00:14:06;101.80;;;36.27;;
17145;SDS011;8688;54.444;18.444;2023-02-16T00:16:35;103.57;;;35.47;;
17145;SDS011;8688;54.444;18.444;2023-02-16T00:21:47;97.73;;;34.70;;
17145;SDS011;8688;54.444;18.444;2023-02-16T00:24:16;93.33;;;35.07;;
17145;SDS011;8688;54.444;18.444;2023-02-16T00:26:45;101.17;;;37.20;;
17145;SDS011;8688;54.444;18.444;2023-02-16T00:29:14;99.63;;;36.13;;
17145;SDS011;8688;54.444;18.444;2023-02-16T00:31:45;101.33;;;36.63;;
17145;SDS011;8688;54.444;18.444;2023-02-16T00:34:20;106.77;;;36.03;;
17145;SDS011;8688;54.444;18.444;2023-02-16T00:36:53;107.57;;;36.43;;
17145;SDS011;8688;54.444;18.444;2023-02-16T00:39:22;103.17;;;36.13;;
17145;SDS011;8688;54.444;18.444;2023-02-16T00:41:52;97.80;;;36.10;;
17145;SDS011;8688;54.444;18.444;2023-02-16T00:44:23;98.03;;;35.37;;
17145;SDS011;8688;54.444;18.444;2023-02-16T00:46:57;87.70;;;33.57;;
17145;SDS011;8688;54.444;18.444;2023-02-16T00:49:27;93.97;;;34.07;;
17145;SDS011;8688;54.444;18.444;2023-02-16T00:51:54;105.83;;;35.33;;
17145;SDS011;8688;54.444;18.444;2023-02-16T00:54:22;98.40;;;35.47;;
17145;SDS011;8688;54.444;18.444;2023-02-16T00:56:49;91.83;;;33.87;;
17145;SDS011;8688;54.444;18.444;2023-02-16T00:59:19;106.63;;;37.30;;
17145;SDS011;8688;54.444;18.444;2023-02-16T01:01:48;100.90;;;35.73;;
17145;SDS011;8688;54.444;18.444;2023-02-16T01:04:17;103.73;;;35.80;;
17145;SDS011;8688;54.444;18.444;2023-02-16T01:06:46;103.60;;;36.37;;
17145;SDS011;8688;54.444;18.444;2023-02-16T01:09:31;92.07;;;33.27;;
17145;SDS011;8688;54.444;18.444;2023-02-16T01:12:18;106.00;;;36.43;;
17145;SDS011;8688;54.444;18.444;2023-02-16T01:14:48;100.03;;;35.43;;
17145;SDS011;8688;54.444;18.444;2023-02-16T01:17:18;99.13;;;34.97;;
17145;SDS011;8688;54.444;18.444;2023-02-16T01:19:45;101.73;;;34.40;;
17145;SDS011;8688;54.444;18.444;2023-02-16T01:22:13;96.90;;;33.90;;
17145;SDS011;8688;54.444;18.444;2023-02-16T01:24:41;108.57;;;36.17;;
17145;SDS011;8688;54.444;18.444;2023-02-16T01:27:09;97.40;;;34.57;;
17145;SDS011;8688;54.444;18.444;2023-02-16T01:29:40;95.83;;;34.47;;
17145;SDS011;8688;54.444;18.444;2023-02-16T01:32:09;98.73;;;34.70;;
17145;SDS011;8688;54.444;18.444;2023-02-16T01:34:37;102.00;;;34.57;;
17145;SDS011;8688;54.444;18.444;2023-02-16T01:37:05;106.03;;;33.93;;
17145;SDS011;8688;54.444;18.444;2023-02-16T01:39:38;97.50;;;35.53;;
17145;SDS011;8688;54.444;18.444;2023-02-16T01:42:08;100.90;;;33.70;;
17145;SDS011;8688;54.444;18.444;2023-02-16T01:44:43;96.57;;;35.33;;
17145;SDS011;8688;54.444;18.444;2023-02-16T01:47:21;97.33;;;34.77;;
17145;SDS011;8688;54.444;18.444;2023-02-16T01:49:57;104.87;;;35.23;;
17145;SDS011;8688;54.444;18.444;2023-02-16T01:52:29;102.03;;;34.40;;
17145;SDS011;8688;54.444;18.444;2023-02-16T01:55:00;103.77;;;35.10;;
17145;SDS011;8688;54.444;18.444;2023-02-16T01:57:33;99.37;;;34.27;;
17145;SDS011;8688;54.444;18.444;2023-02-16T02:00:10;109.47;;;36.20;;
17145;SDS011;8688;54.444;18.444;2023-02-16T02:02:47;94.53;;;33.97;;
17145;SDS011;8688;54.444;18.444;2023-02-16T02:05:18;98.97;;;34.10;;
17145;SDS011;8688;54.444;18.444;2023-02-16T02:08:01;97.27;;;33.97;;
17145;SDS011;8688;54.444;18.444;2023-02-16T02:10:39;98.77;;;34.20;;
17145;SDS011;8688;54.444;18.444;2023-02-16T02:13:14;101.53;;;33.07;;
17145;SDS011;8688;54.444;18.444;2023-02-16T02:15:48;98.70;;;34.10;;
17145;SDS011;8688;54.444;18.444;2023-02-16T02:18:15;101.97;;;32.87;;
17145;SDS011;8688;54.444;18.444;2023-02-16T02:20:48;100.80;;;34.00;;
17145;SDS011;8688;54.444;18.444;2023-02-16T02:23:48;104.63;;;33.57;;
17145;SDS011;8688;54.444;18.444;2023-02-16T02:26:39;96.17;;;33.30;;
17145;SDS011;8688;54.444;18.444;2023-02-16T02:29:35;95.67;;;31.83;;
17145;SDS011;8688;54.444;18.444;2023-02-16T02:32:21;94.70;;;32.77;;
17145;SDS011;8688;54.444;18.444;2023-02-16T02:35:00;103.83;;;35.67;;
17145;SDS011;8688;54.444;18.444;2023-02-16T02:37:42;95.37;;;33.13;;
17145;SDS011;8688;54.444;18.444;2023-02-16T02:40:16;94.37;;;33.00;;
17145;SDS011;8688;54.444;18.444;2023-02-16T02:42:55;107.83;;;36.13;;
17145;SDS011;8688;54.444;18.444;2023-02-16T02:45:31;101.43;;;34.87;;
17145;SDS011;8688;54.444;18.444;2023-02-16T02:48:02;102.57;;;33.83;;
17145;SDS011;8688;54.444;18.444;2023-02-16T02:50:43;95.20;;;32.80;;
17145;SDS011;8688;54.444;18.444;2023-02-16T02:53:33;95.70;;;31.17;;
17145;SDS011;8688;54.444;18.444;2023-02-16T03:11:37;95.17;;;33.60;;
17145;SDS011;8688;54.444;18.444;2023-02-16T03:14:23;93.90;;;33.23;;
17145;SDS011;8688;54.444;18.444;2023-02-16T03:16:56;99.97;;;33.63;;
17145;SDS011;8688;54.444;18.444;2023-02-16T03:19:43;93.63;;;32.30;;
17145;SDS011;8688;54.444;18.444;2023-02-16T03:22:30;100.27;;;32.70;;
17145;SDS011;8688;54.444;18.444;2023-02-16T03:25:16;97.27;;;33.80;;
17145;SDS011;8688;54.444;18.444;2023-02-16T03:28:03;97.53;;;32.30;;
17145;SDS011;8688;54.444;18.444;2023-02-16T03:30:50;100.93;;;33.63;;
17145;SDS011;8688;54.444;18.444;2023-02-16T03:33:20;99.10;;;31.83;;
17145;SDS011;8688;54.444;18.444;2023-02-16T03:35:49;97.77;;;32.80;;
17145;SDS011;8688;54.444;18.444;2023-02-16T03:38:18;97.03;;;33.60;;
17145;SDS011;8688;54.444;18.444;2023-02-16T03:40:46;91.70;;;30.83;;
17145;SDS011;8688;54.444;18.444;2023-02-16T03:43:17;90.63;;;31.37;;
17145;SDS011;8688;54.444;18.444;2023-02-16T03:45:45;96.60;;;31.30;;
17145;SDS011;8688;54.444;18.444;2023-02-16T03:48:12;94.73;;;32.70;;
17145;SDS011;8688;54.444;18.444;2023-02-16T03:50:40;102.60;;;33.80;;
17145;SDS011;8688;54.444;18.444;2023-02-16T03:53:07;87.20;;;31.67;;
17145;SDS011;8688;54.444;18.444;2023-02-16T03:55:35;93.47;;;32.53;;
17145;SDS011;8688;54.444;18.444;2023-02-16T03:58:03;94.13;;;32.57;;
17145;SDS011;8688;54.444;18.444;2023-02-16T04:00:33;97.57;;;31.83;;
17145;SDS011;8688;54.444;18.444;2023-02-16T04:03:02;96.37;;;32.03;;
17145;SDS011;8688;54.444;18.444;2023-02-16T04:05:30;93.73;;;32.07;;
17145;SDS011;8688;54.444;18.444;2023-02-16T04:07:57;94.03;;;31.97;;
17145;SDS011;8688;54.444;18.444;2023-02-16T04:10:25;88.53;;;30.73;;
17145;SDS011;8688;54.444;18.444;2023-02-16T04:12:53;95.00;;;30.93;;
17145;SDS011;8688;54.444;18.444;2023-02-16T04:15:20;85.67;;;30.40;;
17145;SDS011;8688;54.444;18.444;2023-02-16T04:17:50;102.73;;;33.23;;
17145;SDS011;8688;54.444;18.444;2023-02-16T04:20:19;91.93;;;31.20;;
17145;SDS011;8688;54.444;18.444;2023-02-16T04:22:48;87.47;;;30.27;;
17145;SDS011;8688;54.444;18.444;2023-02-16T04:25:16;93.20;;;32.17;;
17145;SDS011;8688;54.444;18.444;2023-02-16T04:27:44;96.63;;;32.73;;
17145;SDS011;8688;54.444;18.444;2023-02-16T04:30:12;87.57;;;31.37;;
17145;SDS011;8688;54.444;18.444;2023-02-16T04:32:41;93.33;;;32.60;;
17145;SDS011;8688;54.444;18.444;2023-02-16T04:35:10;94.50;;;33.17;;
17145;SDS011;8688;54.444;18.444;2023-02-16T04:37:38;93.93;;;30.37;;
17145;SDS011;8688;54.444;18.444;2023-02-16T04:40:06;91.30;;;30.83;;
17145;SDS011;8688;54.444;18.444;2023-02-16T04:42:37;91.73;;;32.50;;
17145;SDS011;8688;54.444;18.444;2023-02-16T04:45:05;102.80;;;32.73;;
17145;SDS011;8688;54.444;18.444;2023-02-16T04:47:34;92.90;;;31.57;;
17145;SDS011;8688;54.444;18.444;2023-02-16T04:50:01;89.60;;;31.07;;
17145;SDS011;8688;54.444;18.444;2023-02-16T04:52:30;91.07;;;32.20;;
17145;SDS011;8688;54.444;18.444;2023-02-16T04:54:58;92.63;;;31.60;;
17145;SDS011;8688;54.444;18.444;2023-02-16T04:57:25;92.47;;;31.50;;
17145;SDS011;8688;54.444;18.444;2023-02-16T04:59:53;95.40;;;29.80;;
17145;SDS011;8688;54.444;18.444;2023-02-16T05:02:21;88.00;;;31.93;;
17145;SDS011;8688;54.444;18.444;2023-02-16T05:04:48;86.87;;;29.87;;
17145;SDS011;8688;54.444;18.444;2023-02-16T05:07:16;89.20;;;30.30;;
17145;SDS011;8688;54.444;18.444;2023-02-16T05:09:45;89.77;;;31.07;;
17145;SDS011;8688;54.444;18.444;2023-02-16T05:12:12;90.17;;;30.47;;
17145;SDS011;8688;54.444;18.444;2023-02-16T05:14:57;93.20;;;30.60;;
17145;SDS011;8688;54.444;18.444;2023-02-16T05:17:25;96.00;;;31.17;;
17145;SDS011;8688;54.444;18.444;2023-02-16T05:19:53;89.13;;;29.87;;
17145;SDS011;8688;54.444;18.444;2023-02-16T05:22:22;90.47;;;29.70;;
17145;SDS011;8688;54.444;18.444;2023-02-16T05:24:51;81.50;;;28.20;;
17145;SDS011;8688;54.444;18.444;2023-02-16T05:27:19;85.63;;;29.90;;
17145;SDS011;8688;54.444;18.444;2023-02-16T05:29:48;82.53;;;28.87;;
17145;SDS011;8688;54.444;18.444;2023-02-16T05:32:16;83.97;;;28.73;;
17145;SDS011;8688;54.444;18.444;2023-02-16T05:34:44;73.77;;;27.33;;
17145;SDS011;8688;54.444;18.444;2023-02-16T05:37:12;88.47;;;28.00;;
17145;SDS011;8688;54.444;18.444;2023-02-16T05:39:41;83.60;;;28.83;;
17145;SDS011;8688;54.444;18.444;2023-02-16T05:42:10;79.13;;;26.67;;
17145;SDS011;8688;54.444;18.444;2023-02-16T05:44:38;86.50;;;29.00;;
17145;SDS011;8688;54.444;18.444;2023-02-16T05:47:05;87.00;;;27.90;;
17145;SDS011;8688;54.444;18.444;2023-02-16T05:49:33;83.37;;;28.40;;
17145;SDS011;8688;54.444;18.444;2023-02-16T05:52:01;89.00;;;29.90;;
17145;SDS011;8688;54.444;18.444;2023-02-16T05:54:28;90.50;;;30.30;;
17145;SDS011;8688;54.444;18.444;2023-02-16T05:56:56;80.33;;;26.97;;
17145;SDS011;8688;54.444;18.444;2023-02-16T05:59:25;86.90;;;30.97;;
17145;SDS011;8688;54.444;18.444;2023-02-16T06:01:52;86.73;;;29.50;;
17145;SDS011;8688;54.444;18.444;2023-02-16T06:04:20;90.43;;;28.73;;
17145;SDS011;8688;54.444;18.444;2023-02-16T06:06:47;84.97;;;29.13;;
17145;SDS011;8688;54.444;18.444;2023-02-16T06:09:15;86.97;;;28.47;;
17145;SDS011;8688;54.444;18.444;2023-02-16T06:11:42;81.57;;;28.67;;
17145;SDS011;8688;54.444;18.444;2023-02-16T06:14:11;92.73;;;29.90;;
17145;SDS011;8688;54.444;18.444;2023-02-16T06:16:42;82.40;;;28.93;;
17145;SDS011;8688;54.444;18.444;2023-02-16T06:19:11;77.20;;;27.00;;
17145;SDS011;8688;54.444;18.444;2023-02-16T06:21:40;83.77;;;28.47;;
17145;SDS011;8688;54.444;18.444;2023-02-16T06:24:08;89.10;;;29.70;;
17145;SDS011;8688;54.444;18.444;2023-02-16T06:26:37;91.17;;;28.57;;
17145;SDS011;8688;54.444;18.444;2023-02-16T06:29:05;83.63;;;29.00;;
17145;SDS011;8688;54.444;18.444;2023-02-16T06:31:33;89.00;;;27.93;;
17145;SDS011;8688;54.444;18.444;2023-02-16T06:34:03;87.57;;;27.67;;
17145;SDS011;8688;54.444;18.444;2023-02-16T06:36:31;91.27;;;27.90;;
17145;SDS011;8688;54.444;18.444;2023-02-16T06:38:59;82.10;;;27.87;;
17145;SDS011;8688;54.444;18.444;2023-02-16T06:41:26;89.37;;;28.70;;
17145;SDS011;8688;54.444;18.444;2023-02-16T06:43:59;80.87;;;28.37;;
17145;SDS011;8688;54.444;18.444;2023-02-16T06:46:28;77.37;;;27.13;;
17145;SDS011;8688;54.444;18.444;2023-02-16T07:04:22;88.70;;;29.00;;
17145;SDS011;8688;54.444;18.444;2023-02-16T07:06:50;86.40;;;29.83;;
17145;SDS011;8688;54.444;18.444;2023-02-16T07:09:17;88.13;;;27.80;;
17145;SDS011;8688;54.444;18.444;2023-02-16T07:11:44;85.63;;;28.80;;
17145;SDS011;8688;54.444;18.444;2023-02-16T07:14:12;78.90;;;27.23;;
17145;SDS011;8688;54.444;18.444;2023-02-16T07:16:40;80.37;;;27.07;;
17145;SDS011;8688;54.444;18.444;2023-02-16T07:19:07;76.03;;;27.60;;
17145;SDS011;8688;54.444;18.444;2023-02-16T07:21:37;83.07;;;28.37;;
17145;SDS011;8688;54.444;18.444;2023-02-16T07:24:04;82.30;;;28.30;;
17145;SDS011;8688;54.444;18.444;2023-02-16T07:26:32;76.03;;;26.77;;
17145;SDS011;8688;54.444;18.444;2023-02-16T07:44:36;78.10;;;25.37;;
17145;SDS011;8688;54.444;18.444;2023-02-16T07:47:03;84.13;;;29.07;;
17145;SDS011;8688;54.444;18.444;2023-02-16T07:49:31;80.90;;;27.90;;
17145;SDS011;8688;54.444;18.444;2023-02-16T07:51:58;73.87;;;27.23;;
17145;SDS011;8688;54.444;18.444;2023-02-16T07:54:26;81.10;;;28.50;;
17145;SDS011;8688;54.444;18.444;2023-02-16T07:56:53;87.23;;;29.53;;
17145;SDS011;8688;54.444;18.444;2023-02-16T07:59:20;90.43;;;32.07;;
17145;SDS011;8688;54.444;18.444;2023-02-16T08:01:49;94.40;;;32.33;;
17145;SDS011;8688;54.444;18.444;2023-02-16T08:04:17;91.50;;;32.10;;
17145;SDS011;8688;54.444;18.444;2023-02-16T08:06:44;79.40;;;28.57;;
17145;SDS011;8688;54.444;18.444;2023-02-16T08:09:12;81.70;;;28.77;;
17145;SDS011;8688;54.444;18.444;2023-02-16T08:11:40;76.73;;;26.67;;
17145;SDS011;8688;54.444;18.444;2023-02-16T08:14:07;82.73;;;29.47;;
17145;SDS011;8688;54.444;18.444;2023-02-16T08:16:35;91.13;;;29.30;;
17145;SDS011;8688;54.444;18.444;2023-02-16T08:19:05;90.00;;;30.03;;
17145;SDS011;8688;54.444;18.444;2023-02-16T08:21:38;75.97;;;27.30;;
17145;SDS011;8688;54.444;18.444;2023-02-16T08:24:06;71.00;;;27.77;;
17145;SDS011;8688;54.444;18.444;2023-02-16T08:26:40;72.47;;;26.87;;
17145;SDS011;8688;54.444;18.444;2023-02-16T08:29:09;60.87;;;24.03;;
17145;SDS011;8688;54.444;18.444;2023-02-16T08:31:42;70.03;;;24.77;;
17145;SDS011;8688;54.444;18.444;2023-02-16T08:34:12;67.33;;;25.43;;
17145;SDS011;8688;54.444;18.444;2023-02-16T08:36:56;68.30;;;25.57;;
17145;SDS011;8688;54.444;18.444;2023-02-16T08:39:24;62.63;;;23.67;;
17145;SDS011;8688;54.444;18.444;2023-02-16T08:41:53;66.93;;;24.43;;
17145;SDS011;8688;54.444;18.444;2023-02-16T08:44:22;63.90;;;24.53;;
17145;SDS011;8688;54.444;18.444;2023-02-16T08:46:51;60.47;;;23.53;;
17145;SDS011;8688;54.444;18.444;2023-02-16T08:49:22;63.57;;;23.73;;
17145;SDS011;8688;54.444;18.444;2023-02-16T08:51:51;70.07;;;25.77;;
17145;SDS011;8688;54.444;18.444;2023-02-16T08:54:20;65.80;;;25.00;;
17145;SDS011;8688;54.444;18.444;2023-02-16T08:56:50;73.47;;;25.50;;
17145;SDS011;8688;54.444;18.444;2023-02-16T08:59:19;71.17;;;25.47;;
17145;SDS011;8688;54.444;18.444;2023-02-16T09:01:47;71.97;;;25.53;;
17145;SDS011;8688;54.444;18.444;2023-02-16T09:04:16;67.87;;;24.93;;
17145;SDS011;8688;54.444;18.444;2023-02-16T09:06:46;73.53;;;25.37;;
17145;SDS011;8688;54.444;18.444;2023-02-16T09:09:14;64.40;;;24.30;;
17145;SDS011;8688;54.444;18.444;2023-02-16T09:11:42;62.67;;;23.07;;
17145;SDS011;8688;54.444;18.444;2023-02-16T09:14:10;67.20;;;25.10;;
17145;SDS011;8688;54.444;18.444;2023-02-16T09:16:38;67.73;;;25.60;;
17145;SDS011;8688;54.444;18.444;2023-02-16T09:19:10;68.03;;;25.57;;
17145;SDS011;8688;54.444;18.444;2023-02-16T09:21:39;63.83;;;24.33;;
17145;SDS011;8688;54.444;18.444;2023-02-16T09:24:09;63.77;;;24.70;;
17145;SDS011;8688;54.444;18.444;2023-02-16T09:26:37;61.83;;;24.57;;
17145;SDS011;8688;54.444;18.444;2023-02-16T09:29:07;65.17;;;24.93;;
17145;SDS011;8688;54.444;18.444;2023-02-16T09:31:36;60.97;;;24.30;;
17145;SDS011;8688;54.444;18.444;2023-02-16T09:34:04;60.90;;;23.47;;
17145;SDS011;8688;54.444;18.444;2023-02-16T09:36:33;66.47;;;24.87;;
17145;SDS011;8688;54.444;18.444;2023-02-16T09:39:01;65.83;;;25.60;;
17145;SDS011;8688;54.444;18.444;2023-02-16T09:41:39;59.27;;;23.43;;
17145;SDS011;8688;54.444;18.444;2023-02-16T09:44:18;64.87;;;24.70;;
17145;SDS011;8688;54.444;18.444;2023-02-16T09:46:57;57.67;;;23.27;;
17145;SDS011;8688;54.444;18.444;2023-02-16T09:49:30;56.60;;;22.93;;
17145;SDS011;8688;54.444;18.444;2023-02-16T09:52:01;68.73;;;25.23;;
17145;SDS011;8688;54.444;18.444;2023-02-16T09:54:39;64.90;;;24.73;;
17145;SDS011;8688;54.444;18.444;2023-02-16T09:57:14;61.50;;;24.47;;
17145;SDS011;8688;54.444;18.444;2023-02-16T09:59:48;59.93;;;24.23;;
17145;SDS011;8688;54.444;18.444;2023-02-16T10:05:13;58.00;;;23.47;;
17145;SDS011;8688;54.444;18.444;2023-02-16T10:07:55;60.90;;;24.37;;
17145;SDS011;8688;54.444;18.444;2023-02-16T10:10:28;59.50;;;23.50;;
17145;SDS011;8688;54.444;18.444;2023-02-16T10:13:02;56.77;;;23.30;;
17145;SDS011;8688;54.444;18.444;2023-02-16T10:15:33;54.50;;;22.77;;
17145;SDS011;8688;54.444;18.444;2023-02-16T10:18:08;54.27;;;23.00;;
17145;SDS011;8688;54.444;18.444;2023-02-16T10:20:45;55.13;;;22.73;;
17145;SDS011;8688;54.444;18.444;2023-02-16T10:23:20;56.83;;;22.70;;
17145;SDS011;8688;54.444;18.444;2023-02-16T10:25:59;58.13;;;22.67;;
17145;SDS011;8688;54.444;18.444;2023-02-16T10:28:35;56.77;;;23.60;;
17145;SDS011;8688;54.444;18.444;2023-02-16T10:31:10;62.33;;;23.77;;
17145;SDS011;8688;54.444;18.444;2023-02-16T10:33:41;60.40;;;23.60;;
17145;SDS011;8688;54.444;18.444;2023-02-16T10:36:14;65.83;;;24.13;;
17145;SDS011;8688;54.444;18.444;2023-02-16T10:38:48;72.37;;;26.20;;
17145;SDS011;8688;54.444;18.444;2023-02-16T10:41:23;63.73;;;24.13;;
17145;SDS011;8688;54.444;18.444;2023-02-16T10:44:00;58.40;;;24.33;;
17145;SDS011;8688;54.444;18.444;2023-02-16T10:46:35;55.63;;;23.57;;
17145;SDS011;8688;54.444;18.444;2023-02-16T10:49:07;57.40;;;22.33;;
17145;SDS011;8688;54.444;18.444;2023-02-16T10:51:37;62.97;;;24.13;;
17145;SDS011;8688;54.444;18.444;2023-02-16T10:54:06;66.43;;;24.07;;
17145;SDS011;8688;54.444;18.444;2023-02-16T10:56:41;62.47;;;24.17;;
17145;SDS011;8688;54.444;18.444;2023-02-16T10:59:19;63.07;;;24.70;;
17145;SDS011;8688;54.444;18.444;2023-02-16T11:01:48;62.93;;;23.30;;
17145;SDS011;8688;54.444;18.444;2023-02-16T11:04:31;61.00;;;24.13;;
17145;SDS011;8688;54.444;18.444;2023-02-16T11:07:02;60.57;;;24.33;;
17145;SDS011;8688;54.444;18.444;2023-02-16T11:09:32;55.23;;;23.87;;
17145;SDS011;8688;54.444;18.444;2023-02-16T11:12:01;56.53;;;23.70;;
17145;SDS011;8688;54.444;18.444;2023-02-16T11:14:45;59.40;;;24.67;;
17145;SDS011;8688;54.444;18.444;2023-02-16T11:17:15;59.33;;;24.57;;
17145;SDS011;8688;54.444;18.444;2023-02-16T11:19:47;53.73;;;22.37;;
17145;SDS011;8688;54.444;18.444;2023-02-16T11:22:28;55.60;;;23.10;;
17145;SDS011;8688;54.444;18.444;2023-02-16T11:27:52;52.73;;;23.10;;
17145;SDS011;8688;54.444;18.444;2023-02-16T11:30:30;60.07;;;25.03;;
17145;SDS011;8688;54.444;18.444;2023-02-16T11:33:03;58.53;;;24.37;;
17145;SDS011;8688;54.444;18.444;2023-02-16T11:35:44;58.13;;;25.53;;
17145;SDS011;8688;54.444;18.444;2023-02-16T11:38:28;54.73;;;23.93;;
17145;SDS011;8688;54.444;18.444;2023-02-16T11:40:58;51.53;;;23.83;;
17145;SDS011;8688;54.444;18.444;2023-02-16T11:43:28;55.60;;;24.03;;
17145;SDS011;8688;54.444;18.444;2023-02-16T11:46:01;56.73;;;25.67;;
17145;SDS011;8688;54.444;18.444;2023-02-16T11:48:31;63.83;;;25.37;;
17145;SDS011;8688;54.444;18.444;2023-02-16T11:50:59;56.17;;;24.97;;
17145;SDS011;8688;54.444;18.444;2023-02-16T11:53:29;64.73;;;24.87;;
17145;SDS011;8688;54.444;18.444;2023-02-16T11:56:09;59.43;;;25.80;;
17145;SDS011;8688;54.444;18.444;2023-02-16T11:59:01;57.43;;;25.07;;
17145;SDS011;8688;54.444;18.444;2023-02-16T12:01:36;53.23;;;23.90;;
17145;SDS011;8688;54.444;18.444;2023-02-16T12:04:18;53.67;;;24.03;;
17145;SDS011;8688;54.444;18.444;2023-02-16T12:06:58;55.70;;;23.87;;
17145;SDS011;8688;54.444;18.444;2023-02-16T12:09:41;56.63;;;24.93;;
17145;SDS011;8688;54.444;18.444;2023-02-16T12:12:16;55.10;;;25.57;;
17145;SDS011;8688;54.444;18.444;2023-02-16T12:14:50;57.13;;;25.23;;
17145;SDS011;8688;54.444;18.444;2023-02-16T12:17:33;53.23;;;23.93;;
17145;SDS011;8688;54.444;18.444;2023-02-16T12:20:15;54.77;;;23.93;;
17145;SDS011;8688;54.444;18.444;2023-02-16T12:22:58;57.90;;;24.63;;
17145;SDS011;8688;54.444;18.444;2023-02-16T12:25:35;58.70;;;26.03;;
17145;SDS011;8688;54.444;18.444;2023-02-16T12:28:07;56.60;;;24.63;;
17145;SDS011;8688;54.444;18.444;2023-02-16T12:30:44;55.30;;;25.13;;
17145;SDS011;8688;54.444;18.444;2023-02-16T12:33:25;56.57;;;25.87;;
17145;SDS011;8688;54.444;18.444;2023-02-16T12:36:08;57.37;;;26.90;;
17145;SDS011;8688;54.444;18.444;2023-02-16T12:38:57;58.77;;;26.77;;
17145;SDS011;8688;54.444;18.444;2023-02-16T12:41:36;60.83;;;27.47;;
17145;SDS011;8688;54.444;18.444;2023-02-16T12:44:12;63.13;;;30.40;;
17145;SDS011;8688;54.444;18.444;2023-02-16T12:46:43;65.72;;;31.25;;
17145;SDS011;8688;54.444;18.444;2023-02-16T12:49:16;60.30;;;31.47;;
17145;SDS011;8688;54.444;18.444;2023-02-16T12:51:49;65.05;;;31.08;;
17145;SDS011;8688;54.444;18.444;2023-02-16T12:54:21;68.33;;;32.10;;
17145;SDS011;8688;54.444;18.444;2023-02-16T12:56:54;68.13;;;32.60;;
17145;SDS011;8688;54.444;18.444;2023-02-16T12:59:30;70.78;;;35.67;;
17145;SDS011;8688;54.444;18.444;2023-02-16T13:02:04;68.47;;;35.25;;
17145;SDS011;8688;54.444;18.444;2023-02-16T13:04:43;66.30;;;34.90;;
17145;SDS011;8688;54.444;18.444;2023-02-16T13:07:15;70.97;;;36.93;;
17145;SDS011;8688;54.444;18.444;2023-02-16T13:09:49;68.07;;;35.10;;
17145;SDS011;8688;54.444;18.444;2023-02-16T13:12:26;69.63;;;34.45;;
17145;SDS011;8688;54.444;18.444;2023-02-16T13:15:00;64.43;;;32.90;;
17145;SDS011;8688;54.444;18.444;2023-02-16T13:17:33;71.25;;;35.72;;
17145;SDS011;8688;54.444;18.444;2023-02-16T13:20:09;69.33;;;31.63;;
17145;SDS011;8688;54.444;18.444;2023-02-16T13:22:51;77.15;;;37.33;;
17145;SDS011;8688;54.444;18.444;2023-02-16T13:25:45;68.50;;;35.53;;
17145;SDS011;8688;54.444;18.444;2023-02-16T13:28:30;71.60;;;34.75;;
17145;SDS011;8688;54.444;18.444;2023-02-16T13:31:13;70.47;;;34.83;;
17145;SDS011;8688;54.444;18.444;2023-02-16T13:33:59;70.95;;;35.25;;
17145;SDS011;8688;54.444;18.444;2023-02-16T13:36:48;67.97;;;35.30;;
17145;SDS011;8688;54.444;18.444;2023-02-16T13:39:41;72.43;;;35.50;;
17145;SDS011;8688;54.444;18.444;2023-02-16T13:42:44;64.35;;;33.88;;
17145;SDS011;8688;54.444;18.444;2023-02-16T13:45:31;70.05;;;34.92;;
17145;SDS011;8688;54.444;18.444;2023-02-16T13:48:10;67.75;;;35.53;;
17145;SDS011;8688;54.444;18.444;2023-02-16T13:50:40;72.95;;;35.75;;
17145;SDS011;8688;54.444;18.444;2023-02-16T13:53:14;72.10;;;36.47;;
17145;SDS011;8688;54.444;18.444;2023-02-16T13:55:44;71.10;;;35.38;;
17145;SDS011;8688;54.444;18.444;2023-02-16T13:58:30;68.60;;;34.63;;
17145;SDS011;8688;54.444;18.444;2023-02-16T14:04:03;70.60;;;35.55;;
17145;SDS011;8688;54.444;18.444;2023-02-16T14:06:33;79.15;;;34.22;;
17145;SDS011;8688;54.444;18.444;2023-02-16T14:12:14;69.25;;;35.00;;
17145;SDS011;8688;54.444;18.444;2023-02-16T14:14:45;75.43;;;34.78;;
17145;SDS011;8688;54.444;18.444;2023-02-16T14:17:28;74.63;;;36.30;;
17145;SDS011;8688;54.444;18.444;2023-02-16T14:19:58;70.77;;;35.10;;
17145;SDS011;8688;54.444;18.444;2023-02-16T14:22:39;72.15;;;35.40;;
17145;SDS011;8688;54.444;18.444;2023-02-16T14:25:31;72.40;;;35.53;;
17145;SDS011;8688;54.444;18.444;2023-02-16T14:28:02;78.75;;;35.70;;
17145;SDS011;8688;54.444;18.444;2023-02-16T14:30:33;80.47;;;38.45;;
17145;SDS011;8688;54.444;18.444;2023-02-16T14:33:04;78.78;;;36.25;;
17145;SDS011;8688;54.444;18.444;2023-02-16T14:35:42;78.13;;;37.30;;
17145;SDS011;8688;54.444;18.444;2023-02-16T14:38:15;77.60;;;36.40;;
17145;SDS011;8688;54.444;18.444;2023-02-16T14:40:50;78.25;;;37.05;;
17145;SDS011;8688;54.444;18.444;2023-02-16T14:43:24;79.57;;;39.15;;
17145;SDS011;8688;54.444;18.444;2023-02-16T14:46:09;86.97;;;40.30;;
17145;SDS011;8688;54.444;18.444;2023-02-16T14:52:22;81.43;;;38.55;;
17145;SDS011;8688;54.444;18.444;2023-02-16T14:55:17;88.82;;;39.67;;
17145;SDS011;8688;54.444;18.444;2023-02-16T14:58:00;78.83;;;39.33;;
17145;SDS011;8688;54.444;18.444;2023-02-16T15:00:35;80.25;;;37.92;;
17145;SDS011;8688;54.444;18.444;2023-02-16T15:03:15;79.50;;;39.13;;
17145;SDS011;8688;54.444;18.444;2023-02-16T15:05:48;77.97;;;38.57;;
17145;SDS011;8688;54.444;18.444;2023-02-16T15:08:22;76.77;;;37.57;;
17145;SDS011;8688;54.444;18.444;2023-02-16T15:10:58;78.78;;;37.45;;
17145;SDS011;8688;54.444;18.444;2023-02-16T15:13:30;74.50;;;36.35;;
17145;SDS011;8688;54.444;18.444;2023-02-16T15:16:02;80.00;;;37.57;;
17145;SDS011;8688;54.444;18.444;2023-02-16T15:21:15;82.90;;;38.67;;
17145;SDS011;8688;54.444;18.444;2023-02-16T15:23:48;79.20;;;37.13;;
17145;SDS011;8688;54.444;18.444;2023-02-16T15:26:18;82.63;;;36.87;;
17145;SDS011;8688;54.444;18.444;2023-02-16T15:28:52;77.97;;;37.17;;
17145;SDS011;8688;54.444;18.444;2023-02-16T15:31:23;84.03;;;39.00;;
17145;SDS011;8688;54.444;18.444;2023-02-16T15:33:58;83.77;;;39.37;;
17145;SDS011;8688;54.444;18.444;2023-02-16T15:36:30;86.70;;;40.10;;
17145;SDS011;8688;54.444;18.444;2023-02-16T15:39:02;81.93;;;39.80;;
17145;SDS011;8688;54.444;18.444;2023-02-16T15:41:32;86.87;;;40.03;;
17145;SDS011;8688;54.444;18.444;2023-02-16T15:44:01;81.73;;;38.87;;
17145;SDS011;8688;54.444;18.444;2023-02-16T15:46:33;82.13;;;38.27;;
17145;SDS011;8688;54.444;18.444;2023-02-16T15:49:09;81.17;;;39.47;;
17145;SDS011;8688;54.444;18.444;2023-02-16T15:51:40;80.70;;;40.10;;
17145;SDS011;8688;54.444;18.444;2023-02-16T15:54:12;85.37;;;39.93;;
17145;SDS011;8688;54.444;18.444;2023-02-16T15:56:48;90.83;;;40.17;;
17145;SDS011;8688;54.444;18.444;2023-02-16T15:59:30;79.73;;;37.83;;
17145;SDS011;8688;54.444;18.444;2023-02-16T16:02:09;85.53;;;38.40;;